Página principal
METAR-TAF:

METAR-TAF

Aeroportos :

Ouagadougou, Burkina Faso

latitude: 12-21N, longitude: 001-31W, altura: 316 m

Observação actual do tempo

O boletim foi feito há 22 minutos, às 23:00 UTC
Vento calmo
Temperatura 28°C
Humidade 35%
Pressão 1011 hPa
Visibilidade: 6000 m

METAR: DFFD 152300Z 00000KT 6000 NSC 28/11 Q1011 NOSIG

Hora: 23:22 (23:22 UTC)

Previsão

O boletim foi feito há 6 horas e 22 minutos, às 17:00 UTC
Previsão válida de 15 às 18 UTC a 16 às 24 UTC
Vento 8 kt de nordeste
Visibilidade: 8000 m
Temporariamente
de 15 às 18 UTC a 15 às 20 UTC
Visibilidade: 4000 m
bruma
Temporariamente
de 16 às 06 UTC a 16 às 10 UTC
Visibilidade: 2500 m
bruma

TAF: DFFD 151700Z 1518/1624 04008KT 8000 NSC TEMPO 1518/1520 4000 HZ TEMPO 1606/1610 2500 HZ

Observações e previsões do tempo de mais de 4000 aeroportos (mensagens METAR e TAF).

As estações disponíveis são os pontos amarelos e vermelhos sobre o mapa.

Mova o rato sobre o mapa para ver o nome da estação.

Depois clique no ponto para visualizar as observações e previsões meteorológicas.

Para alterar o mapa : clique nos botões verdes com uma cruz preta para aumentar o zoom; no botão verde com uma pitada de zoom; ou nas setas verdes para mapas adjacentes.


METAR-TAF: